Terminal Aerodrome Forecast
Issued by NWS

Home | Current Version | Previous Version | Text Only | Print | Product List | Glossary On
Versions: 1 2 3 4 5 6 7 8 9 10 11 12 13 14 15 16
000
FTAK31 PAJN 051120
TAFAGY
TAF
PAGY 051120Z 0512/0612 VRB04KT P6SM FEW060 BKN100
     FM052000 21011KT P6SM OVC050
     FM052300 21015KT P6SM VCSH OVC050
     FM060300 21008KT P6SM OVC050
     FM061000 21008KT P6SM VCSH FEW020 OVC040
      AMD LTD TO CLD VIS AND WIND=

USA.gov is the U.S. government's official web portal to all federal, state and local government web resources and services.